River Falls, Alabama
Current Conditions -  °F | °C
As of 6:56 AM on Friday 28 Nov 2014 (Local Time) from K79J Reporting Station
Clear Clear  
Wind Chill: 35°   Ceiling: Unl
Heat Index: 35°   Visibility: 10mi
Dew Point: 29°   Wind: 3mph
Humidity: 78%   Direction: 330°NNW
Pressure: 30.42"   Gusts: NA
Location:  31.35°N, 86.54°W
Report Text: K79J 281256Z AUTO 33003KT 10SM CLR 02/M02 A3042 RMK AO2 SLP301 T00171017 FZRANO
Loading
Personal Weather Stations






























Interactive Weather Map New forecast layout! Learn more

10-Day Weather Forecast

Advertisements
Track Severe Weather on mobile